sensor_id;sensor_type;location;lat;lon;timestamp;P1;durP1;ratioP1;P2;durP2;ratioP2
6642;SDS011;3357;48.050;7.800;2024-01-06T00:00:19;2.50;;;1.60;;
6642;SDS011;3357;48.050;7.800;2024-01-06T00:02:46;7.10;;;1.60;;
6642;SDS011;3357;48.050;7.800;2024-01-06T00:05:11;6.10;;;1.23;;
6642;SDS011;3357;48.050;7.800;2024-01-06T00:07:36;5.37;;;1.57;;
6642;SDS011;3357;48.050;7.800;2024-01-06T00:10:02;5.43;;;1.27;;
6642;SDS011;3357;48.050;7.800;2024-01-06T00:12:28;1.50;;;1.40;;
6642;SDS011;3357;48.050;7.800;2024-01-06T00:14:53;4.80;;;1.83;;
6642;SDS011;3357;48.050;7.800;2024-01-06T00:17:18;3.23;;;1.53;;
6642;SDS011;3357;48.050;7.800;2024-01-06T00:19:44;5.63;;;1.60;;
6642;SDS011;3357;48.050;7.800;2024-01-06T00:22:09;3.07;;;1.50;;
6642;SDS011;3357;48.050;7.800;2024-01-06T00:24:34;5.40;;;1.80;;
6642;SDS011;3357;48.050;7.800;2024-01-06T00:26:59;1.83;;;1.50;;
6642;SDS011;3357;48.050;7.800;2024-01-06T00:29:25;3.50;;;1.80;;
6642;SDS011;3357;48.050;7.800;2024-01-06T00:31:50;2.40;;;1.63;;
6642;SDS011;3357;48.050;7.800;2024-01-06T00:34:15;5.43;;;2.50;;
6642;SDS011;3357;48.050;7.800;2024-01-06T00:36:40;5.67;;;2.90;;
6642;SDS011;3357;48.050;7.800;2024-01-06T00:39:06;5.67;;;2.77;;
6642;SDS011;3357;48.050;7.800;2024-01-06T00:41:31;5.40;;;2.67;;
6642;SDS011;3357;48.050;7.800;2024-01-06T00:43:56;3.33;;;2.40;;
6642;SDS011;3357;48.050;7.800;2024-01-06T00:46:21;2.40;;;1.90;;
6642;SDS011;3357;48.050;7.800;2024-01-06T00:48:47;3.20;;;1.83;;
6642;SDS011;3357;48.050;7.800;2024-01-06T00:51:12;2.27;;;2.07;;
6642;SDS011;3357;48.050;7.800;2024-01-06T00:53:37;3.33;;;1.73;;
6642;SDS011;3357;48.050;7.800;2024-01-06T00:56:02;3.97;;;2.00;;
6642;SDS011;3357;48.050;7.800;2024-01-06T00:58:28;3.33;;;2.10;;
6642;SDS011;3357;48.050;7.800;2024-01-06T01:00:53;3.47;;;1.87;;
6642;SDS011;3357;48.050;7.800;2024-01-06T01:03:18;3.63;;;1.90;;
6642;SDS011;3357;48.050;7.800;2024-01-06T01:05:44;2.00;;;1.90;;
6642;SDS011;3357;48.050;7.800;2024-01-06T01:08:09;7.13;;;2.27;;
6642;SDS011;3357;48.050;7.800;2024-01-06T01:10:34;5.57;;;1.80;;
6642;SDS011;3357;48.050;7.800;2024-01-06T01:12:59;1.93;;;1.50;;
6642;SDS011;3357;48.050;7.800;2024-01-06T01:15:25;2.33;;;1.43;;
6642;SDS011;3357;48.050;7.800;2024-01-06T01:17:50;3.27;;;1.43;;
6642;SDS011;3357;48.050;7.800;2024-01-06T01:20:15;1.50;;;1.40;;
6642;SDS011;3357;48.050;7.800;2024-01-06T01:22:40;2.03;;;1.50;;
6642;SDS011;3357;48.050;7.800;2024-01-06T01:25:06;4.10;;;1.40;;
6642;SDS011;3357;48.050;7.800;2024-01-06T01:27:33;3.97;;;1.50;;
6642;SDS011;3357;48.050;7.800;2024-01-06T01:29:59;3.43;;;1.70;;
6642;SDS011;3357;48.050;7.800;2024-01-06T01:32:24;4.00;;;1.43;;
6642;SDS011;3357;48.050;7.800;2024-01-06T01:34:49;3.13;;;1.30;;
6642;SDS011;3357;48.050;7.800;2024-01-06T01:37:15;3.90;;;1.60;;
6642;SDS011;3357;48.050;7.800;2024-01-06T01:39:40;6.73;;;1.80;;
6642;SDS011;3357;48.050;7.800;2024-01-06T01:42:06;3.10;;;1.40;;
6642;SDS011;3357;48.050;7.800;2024-01-06T01:44:31;2.70;;;1.37;;
6642;SDS011;3357;48.050;7.800;2024-01-06T01:46:56;2.80;;;1.40;;
6642;SDS011;3357;48.050;7.800;2024-01-06T01:49:21;2.30;;;1.40;;
6642;SDS011;3357;48.050;7.800;2024-01-06T01:51:47;1.87;;;1.23;;
6642;SDS011;3357;48.050;7.800;2024-01-06T01:54:12;2.93;;;1.50;;
6642;SDS011;3357;48.050;7.800;2024-01-06T01:56:38;2.53;;;1.37;;
6642;SDS011;3357;48.050;7.800;2024-01-06T01:59:14;1.80;;;1.43;;
6642;SDS011;3357;48.050;7.800;2024-01-06T02:01:42;1.30;;;1.20;;
6642;SDS011;3357;48.050;7.800;2024-01-06T02:04:08;4.50;;;1.27;;
6642;SDS011;3357;48.050;7.800;2024-01-06T02:06:34;3.70;;;1.20;;
6642;SDS011;3357;48.050;7.800;2024-01-06T02:08:59;6.00;;;1.40;;
6642;SDS011;3357;48.050;7.800;2024-01-06T02:11:25;10.00;;;1.40;;
6642;SDS011;3357;48.050;7.800;2024-01-06T02:13:50;3.50;;;1.60;;
6642;SDS011;3357;48.050;7.800;2024-01-06T02:16:15;5.80;;;1.93;;
6642;SDS011;3357;48.050;7.800;2024-01-06T02:18:40;4.90;;;1.47;;
6642;SDS011;3357;48.050;7.800;2024-01-06T02:21:06;2.20;;;1.60;;
6642;SDS011;3357;48.050;7.800;2024-01-06T02:23:34;3.10;;;1.40;;
6642;SDS011;3357;48.050;7.800;2024-01-06T02:26:00;3.03;;;1.37;;
6642;SDS011;3357;48.050;7.800;2024-01-06T02:28:25;5.50;;;2.00;;
6642;SDS011;3357;48.050;7.800;2024-01-06T02:30:50;2.40;;;1.20;;
6642;SDS011;3357;48.050;7.800;2024-01-06T02:33:16;1.70;;;1.23;;
6642;SDS011;3357;48.050;7.800;2024-01-06T02:35:41;1.70;;;1.03;;
6642;SDS011;3357;48.050;7.800;2024-01-06T02:38:07;1.73;;;1.20;;
6642;SDS011;3357;48.050;7.800;2024-01-06T02:40:33;3.37;;;1.60;;
6642;SDS011;3357;48.050;7.800;2024-01-06T02:42:59;1.93;;;1.30;;
6642;SDS011;3357;48.050;7.800;2024-01-06T02:45:24;2.13;;;1.50;;
6642;SDS011;3357;48.050;7.800;2024-01-06T02:47:49;2.90;;;1.57;;
6642;SDS011;3357;48.050;7.800;2024-01-06T02:50:14;2.43;;;1.53;;
6642;SDS011;3357;48.050;7.800;2024-01-06T02:52:40;1.90;;;1.30;;
6642;SDS011;3357;48.050;7.800;2024-01-06T02:55:05;2.60;;;1.47;;
6642;SDS011;3357;48.050;7.800;2024-01-06T02:57:31;5.17;;;1.43;;
6642;SDS011;3357;48.050;7.800;2024-01-06T02:59:56;4.00;;;1.10;;
6642;SDS011;3357;48.050;7.800;2024-01-06T03:02:22;3.00;;;1.40;;
6642;SDS011;3357;48.050;7.800;2024-01-06T03:04:47;1.47;;;1.20;;
6642;SDS011;3357;48.050;7.800;2024-01-06T03:07:12;2.93;;;1.30;;
6642;SDS011;3357;48.050;7.800;2024-01-06T03:09:37;8.20;;;1.83;;
6642;SDS011;3357;48.050;7.800;2024-01-06T03:12:04;2.70;;;1.50;;
6642;SDS011;3357;48.050;7.800;2024-01-06T03:14:31;3.37;;;1.80;;
6642;SDS011;3357;48.050;7.800;2024-01-06T03:16:56;3.47;;;1.83;;
6642;SDS011;3357;48.050;7.800;2024-01-06T03:19:23;5.87;;;1.77;;
6642;SDS011;3357;48.050;7.800;2024-01-06T03:21:51;2.17;;;1.60;;
6642;SDS011;3357;48.050;7.800;2024-01-06T03:24:16;3.30;;;1.77;;
6642;SDS011;3357;48.050;7.800;2024-01-06T03:26:41;3.90;;;1.30;;
6642;SDS011;3357;48.050;7.800;2024-01-06T03:29:07;2.33;;;1.40;;
6642;SDS011;3357;48.050;7.800;2024-01-06T03:31:32;4.30;;;1.50;;
6642;SDS011;3357;48.050;7.800;2024-01-06T03:33:57;2.80;;;1.60;;
6642;SDS011;3357;48.050;7.800;2024-01-06T03:36:23;7.00;;;1.77;;
6642;SDS011;3357;48.050;7.800;2024-01-06T03:38:48;2.30;;;1.47;;
6642;SDS011;3357;48.050;7.800;2024-01-06T03:41:13;3.50;;;1.67;;
6642;SDS011;3357;48.050;7.800;2024-01-06T03:43:38;5.70;;;1.87;;
6642;SDS011;3357;48.050;7.800;2024-01-06T03:46:04;2.63;;;1.70;;
6642;SDS011;3357;48.050;7.800;2024-01-06T03:48:30;2.03;;;1.20;;
6642;SDS011;3357;48.050;7.800;2024-01-06T03:51:01;2.73;;;1.90;;
6642;SDS011;3357;48.050;7.800;2024-01-06T03:53:27;5.37;;;1.70;;
6642;SDS011;3357;48.050;7.800;2024-01-06T03:55:52;2.70;;;1.63;;
6642;SDS011;3357;48.050;7.800;2024-01-06T03:58:17;3.10;;;1.13;;
6642;SDS011;3357;48.050;7.800;2024-01-06T04:00:43;2.20;;;1.63;;
6642;SDS011;3357;48.050;7.800;2024-01-06T04:03:08;2.43;;;1.43;;
6642;SDS011;3357;48.050;7.800;2024-01-06T04:05:33;3.97;;;1.50;;
6642;SDS011;3357;48.050;7.800;2024-01-06T04:07:59;5.00;;;1.70;;
6642;SDS011;3357;48.050;7.800;2024-01-06T04:10:24;2.40;;;1.33;;
6642;SDS011;3357;48.050;7.800;2024-01-06T04:12:49;2.30;;;1.40;;
6642;SDS011;3357;48.050;7.800;2024-01-06T04:15:15;3.00;;;1.70;;
6642;SDS011;3357;48.050;7.800;2024-01-06T04:17:41;3.50;;;1.73;;
6642;SDS011;3357;48.050;7.800;2024-01-06T04:20:06;3.50;;;1.70;;
6642;SDS011;3357;48.050;7.800;2024-01-06T04:22:32;3.67;;;1.93;;
6642;SDS011;3357;48.050;7.800;2024-01-06T04:24:57;1.50;;;1.40;;
6642;SDS011;3357;48.050;7.800;2024-01-06T04:27:22;3.03;;;1.80;;
6642;SDS011;3357;48.050;7.800;2024-01-06T04:29:47;2.23;;;1.40;;
6642;SDS011;3357;48.050;7.800;2024-01-06T04:32:13;2.40;;;1.63;;
6642;SDS011;3357;48.050;7.800;2024-01-06T04:34:38;2.10;;;1.80;;
6642;SDS011;3357;48.050;7.800;2024-01-06T04:37:03;3.27;;;1.60;;
6642;SDS011;3357;48.050;7.800;2024-01-06T04:39:28;3.90;;;1.47;;
6642;SDS011;3357;48.050;7.800;2024-01-06T04:41:54;1.93;;;1.30;;
6642;SDS011;3357;48.050;7.800;2024-01-06T04:44:20;6.83;;;1.83;;
6642;SDS011;3357;48.050;7.800;2024-01-06T04:46:45;2.60;;;1.77;;
6642;SDS011;3357;48.050;7.800;2024-01-06T04:49:11;1.40;;;1.30;;
6642;SDS011;3357;48.050;7.800;2024-01-06T04:51:36;2.67;;;1.43;;
6642;SDS011;3357;48.050;7.800;2024-01-06T04:54:01;5.20;;;1.80;;
6642;SDS011;3357;48.050;7.800;2024-01-06T04:56:26;2.10;;;1.80;;
6642;SDS011;3357;48.050;7.800;2024-01-06T04:58:52;7.97;;;1.90;;
6642;SDS011;3357;48.050;7.800;2024-01-06T05:01:17;1.80;;;1.40;;
6642;SDS011;3357;48.050;7.800;2024-01-06T05:03:42;5.27;;;1.73;;
6642;SDS011;3357;48.050;7.800;2024-01-06T05:06:07;2.00;;;1.90;;
6642;SDS011;3357;48.050;7.800;2024-01-06T05:08:33;4.30;;;2.27;;
6642;SDS011;3357;48.050;7.800;2024-01-06T05:10:58;5.10;;;2.30;;
6642;SDS011;3357;48.050;7.800;2024-01-06T05:13:24;6.90;;;2.50;;
6642;SDS011;3357;48.050;7.800;2024-01-06T05:15:49;2.67;;;1.87;;
6642;SDS011;3357;48.050;7.800;2024-01-06T05:18:14;4.37;;;2.00;;
6642;SDS011;3357;48.050;7.800;2024-01-06T05:20:40;1.70;;;1.60;;
6642;SDS011;3357;48.050;7.800;2024-01-06T05:23:06;1.70;;;1.37;;
6642;SDS011;3357;48.050;7.800;2024-01-06T05:25:31;7.00;;;1.47;;
6642;SDS011;3357;48.050;7.800;2024-01-06T05:27:57;1.83;;;1.40;;
6642;SDS011;3357;48.050;7.800;2024-01-06T05:30:22;2.43;;;1.40;;
6642;SDS011;3357;48.050;7.800;2024-01-06T05:32:47;4.63;;;1.50;;
6642;SDS011;3357;48.050;7.800;2024-01-06T05:35:13;1.90;;;1.80;;
6642;SDS011;3357;48.050;7.800;2024-01-06T05:37:38;1.77;;;1.60;;
6642;SDS011;3357;48.050;7.800;2024-01-06T05:40:04;2.33;;;1.33;;
6642;SDS011;3357;48.050;7.800;2024-01-06T05:42:31;3.57;;;1.87;;
6642;SDS011;3357;48.050;7.800;2024-01-06T05:44:57;3.63;;;1.80;;
6642;SDS011;3357;48.050;7.800;2024-01-06T05:47:23;2.20;;;1.50;;
6642;SDS011;3357;48.050;7.800;2024-01-06T05:49:48;1.80;;;1.70;;
6642;SDS011;3357;48.050;7.800;2024-01-06T05:52:14;3.63;;;1.90;;
6642;SDS011;3357;48.050;7.800;2024-01-06T05:54:40;3.40;;;1.80;;
6642;SDS011;3357;48.050;7.800;2024-01-06T05:57:07;2.07;;;1.50;;
6642;SDS011;3357;48.050;7.800;2024-01-06T05:59:33;2.70;;;1.70;;
6642;SDS011;3357;48.050;7.800;2024-01-06T06:01:58;2.20;;;1.60;;
6642;SDS011;3357;48.050;7.800;2024-01-06T06:04:23;1.93;;;1.80;;
6642;SDS011;3357;48.050;7.800;2024-01-06T06:06:49;2.10;;;1.90;;
6642;SDS011;3357;48.050;7.800;2024-01-06T06:09:14;4.30;;;1.93;;
6642;SDS011;3357;48.050;7.800;2024-01-06T06:11:40;3.73;;;1.90;;
6642;SDS011;3357;48.050;7.800;2024-01-06T06:14:05;1.60;;;1.50;;
6642;SDS011;3357;48.050;7.800;2024-01-06T06:16:31;3.43;;;1.93;;
6642;SDS011;3357;48.050;7.800;2024-01-06T06:18:56;4.47;;;2.20;;
6642;SDS011;3357;48.050;7.800;2024-01-06T06:21:21;1.83;;;1.73;;
6642;SDS011;3357;48.050;7.800;2024-01-06T06:23:46;9.97;;;2.20;;
6642;SDS011;3357;48.050;7.800;2024-01-06T06:26:12;4.23;;;1.70;;
6642;SDS011;3357;48.050;7.800;2024-01-06T06:28:38;1.93;;;1.53;;
6642;SDS011;3357;48.050;7.800;2024-01-06T06:31:03;2.13;;;1.60;;
6642;SDS011;3357;48.050;7.800;2024-01-06T06:33:28;3.33;;;1.60;;
6642;SDS011;3357;48.050;7.800;2024-01-06T06:35:54;2.40;;;1.87;;
6642;SDS011;3357;48.050;7.800;2024-01-06T06:38:19;4.90;;;1.83;;
6642;SDS011;3357;48.050;7.800;2024-01-06T06:40:46;4.57;;;2.00;;
6642;SDS011;3357;48.050;7.800;2024-01-06T06:43:12;6.20;;;1.87;;
6642;SDS011;3357;48.050;7.800;2024-01-06T06:45:37;2.80;;;1.77;;
6642;SDS011;3357;48.050;7.800;2024-01-06T06:48:03;2.00;;;1.80;;
6642;SDS011;3357;48.050;7.800;2024-01-06T06:50:28;4.97;;;1.90;;
6642;SDS011;3357;48.050;7.800;2024-01-06T06:52:54;4.70;;;2.00;;
6642;SDS011;3357;48.050;7.800;2024-01-06T06:55:19;3.20;;;1.50;;
6642;SDS011;3357;48.050;7.800;2024-01-06T06:57:44;1.30;;;1.20;;
6642;SDS011;3357;48.050;7.800;2024-01-06T07:00:10;1.80;;;1.23;;
6642;SDS011;3357;48.050;7.800;2024-01-06T07:02:36;3.00;;;1.47;;
6642;SDS011;3357;48.050;7.800;2024-01-06T07:05:01;1.50;;;1.40;;
6642;SDS011;3357;48.050;7.800;2024-01-06T07:07:27;2.87;;;1.40;;
6642;SDS011;3357;48.050;7.800;2024-01-06T07:09:52;2.87;;;1.50;;
6642;SDS011;3357;48.050;7.800;2024-01-06T07:12:18;4.70;;;1.50;;
6642;SDS011;3357;48.050;7.800;2024-01-06T07:14:43;4.20;;;1.10;;
6642;SDS011;3357;48.050;7.800;2024-01-06T07:17:09;3.63;;;1.40;;
6642;SDS011;3357;48.050;7.800;2024-01-06T07:19:35;4.90;;;1.10;;
6642;SDS011;3357;48.050;7.800;2024-01-06T07:22:01;2.63;;;1.10;;
6642;SDS011;3357;48.050;7.800;2024-01-06T07:24:26;4.20;;;1.10;;
6642;SDS011;3357;48.050;7.800;2024-01-06T07:26:52;2.60;;;1.20;;
6642;SDS011;3357;48.050;7.800;2024-01-06T07:29:17;3.93;;;1.47;;
6642;SDS011;3357;48.050;7.800;2024-01-06T07:31:43;2.83;;;1.30;;
6642;SDS011;3357;48.050;7.800;2024-01-06T07:34:09;1.93;;;1.50;;
6642;SDS011;3357;48.050;7.800;2024-01-06T07:36:34;3.23;;;1.77;;
6642;SDS011;3357;48.050;7.800;2024-01-06T07:38:59;4.63;;;1.67;;
6642;SDS011;3357;48.050;7.800;2024-01-06T07:41:24;2.20;;;1.40;;
6642;SDS011;3357;48.050;7.800;2024-01-06T07:43:50;1.73;;;1.60;;
6642;SDS011;3357;48.050;7.800;2024-01-06T07:46:15;4.87;;;1.73;;
6642;SDS011;3357;48.050;7.800;2024-01-06T07:48:40;2.70;;;2.50;;
6642;SDS011;3357;48.050;7.800;2024-01-06T07:51:05;5.70;;;2.60;;
6642;SDS011;3357;48.050;7.800;2024-01-06T07:53:31;5.90;;;3.33;;
6642;SDS011;3357;48.050;7.800;2024-01-06T07:55:56;10.80;;;3.37;;
6642;SDS011;3357;48.050;7.800;2024-01-06T07:58:21;7.97;;;3.87;;
6642;SDS011;3357;48.050;7.800;2024-01-06T08:00:47;3.93;;;3.10;;
6642;SDS011;3357;48.050;7.800;2024-01-06T08:03:13;4.53;;;3.07;;
6642;SDS011;3357;48.050;7.800;2024-01-06T08:05:38;6.70;;;3.30;;
6642;SDS011;3357;48.050;7.800;2024-01-06T08:08:04;3.60;;;3.30;;
6642;SDS011;3357;48.050;7.800;2024-01-06T08:10:30;8.93;;;3.47;;
6642;SDS011;3357;48.050;7.800;2024-01-06T08:12:56;5.70;;;3.60;;
6642;SDS011;3357;48.050;7.800;2024-01-06T08:15:21;3.33;;;3.07;;
6642;SDS011;3357;48.050;7.800;2024-01-06T08:17:46;5.47;;;3.40;;
6642;SDS011;3357;48.050;7.800;2024-01-06T08:20:12;9.80;;;6.10;;
6642;SDS011;3357;48.050;7.800;2024-01-06T08:22:37;10.43;;;6.10;;
6642;SDS011;3357;48.050;7.800;2024-01-06T08:25:03;11.03;;;6.80;;
6642;SDS011;3357;48.050;7.800;2024-01-06T08:27:31;7.67;;;4.97;;
6642;SDS011;3357;48.050;7.800;2024-01-06T08:29:56;3.80;;;3.10;;
6642;SDS011;3357;48.050;7.800;2024-01-06T08:32:21;6.40;;;2.60;;
6642;SDS011;3357;48.050;7.800;2024-01-06T08:34:47;2.43;;;2.00;;
6642;SDS011;3357;48.050;7.800;2024-01-06T08:37:12;3.87;;;2.10;;
6642;SDS011;3357;48.050;7.800;2024-01-06T08:39:38;4.73;;;1.70;;
6642;SDS011;3357;48.050;7.800;2024-01-06T08:42:03;12.53;;;5.27;;
6642;SDS011;3357;48.050;7.800;2024-01-06T08:44:29;7.73;;;4.80;;
6642;SDS011;3357;48.050;7.800;2024-01-06T08:46:54;4.30;;;3.30;;
6642;SDS011;3357;48.050;7.800;2024-01-06T08:49:19;5.37;;;4.10;;
6642;SDS011;3357;48.050;7.800;2024-01-06T08:51:44;10.47;;;5.53;;
6642;SDS011;3357;48.050;7.800;2024-01-06T08:54:10;9.10;;;5.00;;
6642;SDS011;3357;48.050;7.800;2024-01-06T08:56:35;5.63;;;3.53;;
6642;SDS011;3357;48.050;7.800;2024-01-06T08:59:01;3.80;;;2.83;;
6642;SDS011;3357;48.050;7.800;2024-01-06T09:01:26;6.50;;;4.20;;
6642;SDS011;3357;48.050;7.800;2024-01-06T09:03:51;10.50;;;5.77;;
6642;SDS011;3357;48.050;7.800;2024-01-06T09:06:17;10.87;;;6.17;;
6642;SDS011;3357;48.050;7.800;2024-01-06T09:08:42;12.70;;;6.80;;
6642;SDS011;3357;48.050;7.800;2024-01-06T09:11:07;11.93;;;6.33;;
6642;SDS011;3357;48.050;7.800;2024-01-06T09:13:33;12.87;;;8.00;;
6642;SDS011;3357;48.050;7.800;2024-01-06T09:15:58;15.27;;;8.10;;
6642;SDS011;3357;48.050;7.800;2024-01-06T09:18:25;24.70;;;10.30;;
6642;SDS011;3357;48.050;7.800;2024-01-06T09:20:53;21.10;;;8.63;;
6642;SDS011;3357;48.050;7.800;2024-01-06T09:23:19;9.73;;;4.97;;
6642;SDS011;3357;48.050;7.800;2024-01-06T09:25:44;14.20;;;3.17;;
6642;SDS011;3357;48.050;7.800;2024-01-06T09:28:10;6.87;;;3.27;;
6642;SDS011;3357;48.050;7.800;2024-01-06T09:30:35;13.53;;;4.97;;
6642;SDS011;3357;48.050;7.800;2024-01-06T09:33:02;4.00;;;3.00;;
6642;SDS011;3357;48.050;7.800;2024-01-06T09:35:27;4.90;;;3.03;;
6642;SDS011;3357;48.050;7.800;2024-01-06T09:37:52;3.83;;;1.80;;
6642;SDS011;3357;48.050;7.800;2024-01-06T09:40:22;3.13;;;1.63;;
6642;SDS011;3357;48.050;7.800;2024-01-06T09:42:51;3.30;;;1.83;;
6642;SDS011;3357;48.050;7.800;2024-01-06T09:45:18;3.37;;;1.67;;
6642;SDS011;3357;48.050;7.800;2024-01-06T09:47:47;7.40;;;2.83;;
6642;SDS011;3357;48.050;7.800;2024-01-06T09:50:14;6.20;;;3.57;;
6642;SDS011;3357;48.050;7.800;2024-01-06T09:52:45;11.87;;;4.07;;
6642;SDS011;3357;48.050;7.800;2024-01-06T09:55:17;12.40;;;5.60;;
6642;SDS011;3357;48.050;7.800;2024-01-06T09:57:45;7.50;;;3.40;;
6642;SDS011;3357;48.050;7.800;2024-01-06T10:00:10;2.40;;;1.77;;
6642;SDS011;3357;48.050;7.800;2024-01-06T10:02:36;4.37;;;1.43;;
6642;SDS011;3357;48.050;7.800;2024-01-06T10:05:01;3.53;;;1.40;;
6642;SDS011;3357;48.050;7.800;2024-01-06T10:07:26;2.83;;;1.40;;
6642;SDS011;3357;48.050;7.800;2024-01-06T10:09:54;4.30;;;1.60;;
6642;SDS011;3357;48.050;7.800;2024-01-06T10:12:22;5.90;;;2.67;;
6642;SDS011;3357;48.050;7.800;2024-01-06T10:14:49;7.67;;;2.00;;
6642;SDS011;3357;48.050;7.800;2024-01-06T10:17:14;2.53;;;1.80;;
6642;SDS011;3357;48.050;7.800;2024-01-06T10:19:39;2.13;;;1.43;;
6642;SDS011;3357;48.050;7.800;2024-01-06T10:22:05;3.77;;;1.77;;
6642;SDS011;3357;48.050;7.800;2024-01-06T10:24:30;2.57;;;1.40;;
6642;SDS011;3357;48.050;7.800;2024-01-06T10:26:56;1.33;;;1.10;;
6642;SDS011;3357;48.050;7.800;2024-01-06T10:29:24;4.10;;;1.20;;
6642;SDS011;3357;48.050;7.800;2024-01-06T10:31:51;1.10;;;1.00;;
6642;SDS011;3357;48.050;7.800;2024-01-06T10:34:16;4.90;;;1.57;;
6642;SDS011;3357;48.050;7.800;2024-01-06T10:36:41;4.30;;;2.03;;
6642;SDS011;3357;48.050;7.800;2024-01-06T10:39:06;3.30;;;1.37;;
6642;SDS011;3357;48.050;7.800;2024-01-06T10:41:32;2.80;;;1.60;;
6642;SDS011;3357;48.050;7.800;2024-01-06T10:43:58;1.10;;;1.00;;
6642;SDS011;3357;48.050;7.800;2024-01-06T10:46:26;6.00;;;1.27;;
6642;SDS011;3357;48.050;7.800;2024-01-06T10:48:51;3.20;;;1.10;;
6642;SDS011;3357;48.050;7.800;2024-01-06T10:51:17;2.10;;;1.30;;
6642;SDS011;3357;48.050;7.800;2024-01-06T10:53:42;1.13;;;0.90;;
6642;SDS011;3357;48.050;7.800;2024-01-06T10:56:09;1.10;;;1.10;;
6642;SDS011;3357;48.050;7.800;2024-01-06T10:58:35;2.13;;;1.57;;
6642;SDS011;3357;48.050;7.800;2024-01-06T11:01:11;4.37;;;1.37;;
6642;SDS011;3357;48.050;7.800;2024-01-06T11:03:37;1.07;;;0.97;;
6642;SDS011;3357;48.050;7.800;2024-01-06T11:06:04;1.10;;;1.00;;
6642;SDS011;3357;48.050;7.800;2024-01-06T11:08:30;1.37;;;0.90;;
6642;SDS011;3357;48.050;7.800;2024-01-06T11:10:57;1.17;;;1.17;;
6642;SDS011;3357;48.050;7.800;2024-01-06T11:13:22;3.17;;;1.10;;
6642;SDS011;3357;48.050;7.800;2024-01-06T11:15:49;2.00;;;1.13;;
6642;SDS011;3357;48.050;7.800;2024-01-06T11:18:36;1.83;;;1.33;;
6642;SDS011;3357;48.050;7.800;2024-01-06T11:21:18;1.40;;;0.90;;
6642;SDS011;3357;48.050;7.800;2024-01-06T11:26:45;3.83;;;0.90;;
6642;SDS011;3357;48.050;7.800;2024-01-06T11:29:15;1.80;;;1.03;;
6642;SDS011;3357;48.050;7.800;2024-01-06T11:31:40;10.87;;;2.90;;
6642;SDS011;3357;48.050;7.800;2024-01-06T11:34:15;9.47;;;3.03;;
6642;SDS011;3357;48.050;7.800;2024-01-06T11:36:48;4.80;;;2.00;;
6642;SDS011;3357;48.050;7.800;2024-01-06T11:42:03;5.57;;;2.10;;
6642;SDS011;3357;48.050;7.800;2024-01-06T11:44:29;3.97;;;1.60;;
6642;SDS011;3357;48.050;7.800;2024-01-06T11:46:57;5.47;;;1.70;;
6642;SDS011;3357;48.050;7.800;2024-01-06T11:49:26;2.13;;;1.93;;
6642;SDS011;3357;48.050;7.800;2024-01-06T11:51:53;2.17;;;1.60;;
6642;SDS011;3357;48.050;7.800;2024-01-06T11:54:18;1.70;;;1.27;;
6642;SDS011;3357;48.050;7.800;2024-01-06T11:56:45;2.30;;;1.30;;
6642;SDS011;3357;48.050;7.800;2024-01-06T11:59:10;1.20;;;1.10;;
6642;SDS011;3357;48.050;7.800;2024-01-06T12:01:36;2.70;;;2.50;;
6642;SDS011;3357;48.050;7.800;2024-01-06T12:04:03;3.60;;;2.60;;
6642;SDS011;3357;48.050;7.800;2024-01-06T12:06:30;1.70;;;1.60;;
6642;SDS011;3357;48.050;7.800;2024-01-06T12:09:05;3.90;;;1.53;;
6642;SDS011;3357;48.050;7.800;2024-01-06T12:11:40;2.00;;;1.10;;
6642;SDS011;3357;48.050;7.800;2024-01-06T12:14:06;1.60;;;1.40;;
6642;SDS011;3357;48.050;7.800;2024-01-06T12:16:31;1.73;;;1.10;;
6642;SDS011;3357;48.050;7.800;2024-01-06T12:18:58;2.40;;;1.37;;
6642;SDS011;3357;48.050;7.800;2024-01-06T12:21:25;2.93;;;1.50;;
6642;SDS011;3357;48.050;7.800;2024-01-06T12:23:54;2.00;;;1.50;;
6642;SDS011;3357;48.050;7.800;2024-01-06T12:26:19;1.30;;;1.20;;
6642;SDS011;3357;48.050;7.800;2024-01-06T12:28:45;1.77;;;1.10;;
6642;SDS011;3357;48.050;7.800;2024-01-06T12:31:11;3.33;;;1.10;;
6642;SDS011;3357;48.050;7.800;2024-01-06T12:33:37;3.67;;;1.63;;
6642;SDS011;3357;48.050;7.800;2024-01-06T12:36:04;9.73;;;4.50;;
6642;SDS011;3357;48.050;7.800;2024-01-06T12:38:30;4.40;;;2.17;;
6642;SDS011;3357;48.050;7.800;2024-01-06T12:40:55;2.13;;;1.20;;
6642;SDS011;3357;48.050;7.800;2024-01-06T12:43:20;1.87;;;1.30;;
6642;SDS011;3357;48.050;7.800;2024-01-06T12:45:46;1.40;;;1.27;;
6642;SDS011;3357;48.050;7.800;2024-01-06T12:48:11;2.33;;;2.20;;
6642;SDS011;3357;48.050;7.800;2024-01-06T12:50:36;1.17;;;1.07;;
6642;SDS011;3357;48.050;7.800;2024-01-06T12:53:02;1.10;;;1.10;;
6642;SDS011;3357;48.050;7.800;2024-01-06T12:55:27;1.33;;;1.23;;
6642;SDS011;3357;48.050;7.800;2024-01-06T12:57:52;3.50;;;2.00;;
6642;SDS011;3357;48.050;7.800;2024-01-06T13:00:18;1.20;;;1.20;;
6642;SDS011;3357;48.050;7.800;2024-01-06T13:02:43;0.97;;;0.97;;
6642;SDS011;3357;48.050;7.800;2024-01-06T13:05:08;0.90;;;0.90;;
6642;SDS011;3357;48.050;7.800;2024-01-06T13:07:34;1.60;;;1.50;;
6642;SDS011;3357;48.050;7.800;2024-01-06T13:09:59;0.60;;;0.60;;
6642;SDS011;3357;48.050;7.800;2024-01-06T13:12:25;1.13;;;1.10;;
6642;SDS011;3357;48.050;7.800;2024-01-06T13:14:50;1.00;;;1.00;;
6642;SDS011;3357;48.050;7.800;2024-01-06T13:17:16;0.77;;;0.77;;
6642;SDS011;3357;48.050;7.800;2024-01-06T13:19:42;1.30;;;0.83;;
6642;SDS011;3357;48.050;7.800;2024-01-06T13:22:07;0.80;;;0.80;;
6642;SDS011;3357;48.050;7.800;2024-01-06T13:24:32;0.90;;;0.90;;
6642;SDS011;3357;48.050;7.800;2024-01-06T13:26:57;1.00;;;1.00;;
6642;SDS011;3357;48.050;7.800;2024-01-06T13:29:24;1.30;;;1.20;;
6642;SDS011;3357;48.050;7.800;2024-01-06T13:31:49;1.33;;;1.10;;
6642;SDS011;3357;48.050;7.800;2024-01-06T13:34:15;1.70;;;1.30;;
6642;SDS011;3357;48.050;7.800;2024-01-06T13:36:40;2.60;;;1.00;;
6642;SDS011;3357;48.050;7.800;2024-01-06T13:39:06;1.60;;;1.50;;
6642;SDS011;3357;48.050;7.800;2024-01-06T13:41:31;6.13;;;3.57;;
6642;SDS011;3357;48.050;7.800;2024-01-06T13:43:57;3.87;;;2.80;;
6642;SDS011;3357;48.050;7.800;2024-01-06T13:46:23;5.13;;;3.97;;
6642;SDS011;3357;48.050;7.800;2024-01-06T13:48:48;5.93;;;3.67;;
6642;SDS011;3357;48.050;7.800;2024-01-06T13:51:13;6.20;;;4.27;;
6642;SDS011;3357;48.050;7.800;2024-01-06T13:53:39;5.20;;;2.70;;
6642;SDS011;3357;48.050;7.800;2024-01-06T13:56:04;3.33;;;1.80;;
6642;SDS011;3357;48.050;7.800;2024-01-06T13:58:30;4.73;;;1.53;;
6642;SDS011;3357;48.050;7.800;2024-01-06T14:00:56;11.07;;;4.70;;
6642;SDS011;3357;48.050;7.800;2024-01-06T14:03:21;14.10;;;5.87;;
6642;SDS011;3357;48.050;7.800;2024-01-06T14:05:47;8.30;;;4.33;;
6642;SDS011;3357;48.050;7.800;2024-01-06T14:08:12;8.87;;;4.30;;
6642;SDS011;3357;48.050;7.800;2024-01-06T14:10:39;7.40;;;4.00;;
6642;SDS011;3357;48.050;7.800;2024-01-06T14:13:04;10.97;;;5.03;;
6642;SDS011;3357;48.050;7.800;2024-01-06T14:15:29;6.17;;;3.60;;
6642;SDS011;3357;48.050;7.800;2024-01-06T14:17:56;3.57;;;2.60;;
6642;SDS011;3357;48.050;7.800;2024-01-06T14:20:21;1.40;;;1.30;;
6642;SDS011;3357;48.050;7.800;2024-01-06T14:22:46;1.60;;;1.50;;
6642;SDS011;3357;48.050;7.800;2024-01-06T14:25:12;3.13;;;1.00;;
6642;SDS011;3357;48.050;7.800;2024-01-06T14:27:38;1.20;;;1.10;;
6642;SDS011;3357;48.050;7.800;2024-01-06T14:30:04;1.00;;;1.00;;
6642;SDS011;3357;48.050;7.800;2024-01-06T14:32:32;1.60;;;1.50;;
6642;SDS011;3357;48.050;7.800;2024-01-06T14:34:58;1.70;;;1.60;;
6642;SDS011;3357;48.050;7.800;2024-01-06T14:37:23;3.33;;;1.27;;
6642;SDS011;3357;48.050;7.800;2024-01-06T14:39:48;2.00;;;1.87;;
6642;SDS011;3357;48.050;7.800;2024-01-06T14:42:13;1.50;;;1.10;;
6642;SDS011;3357;48.050;7.800;2024-01-06T14:44:40;1.10;;;1.00;;
6642;SDS011;3357;48.050;7.800;2024-01-06T14:47:05;1.03;;;1.00;;
6642;SDS011;3357;48.050;7.800;2024-01-06T14:49:31;1.53;;;1.43;;
6642;SDS011;3357;48.050;7.800;2024-01-06T14:51:57;2.60;;;2.40;;
6642;SDS011;3357;48.050;7.800;2024-01-06T14:54:22;2.80;;;1.97;;
6642;SDS011;3357;48.050;7.800;2024-01-06T14:56:47;5.43;;;2.57;;
6642;SDS011;3357;48.050;7.800;2024-01-06T14:59:12;5.27;;;3.37;;
6642;SDS011;3357;48.050;7.800;2024-01-06T15:01:41;3.93;;;2.60;;
6642;SDS011;3357;48.050;7.800;2024-01-06T15:04:07;3.90;;;1.60;;
6642;SDS011;3357;48.050;7.800;2024-01-06T15:06:32;1.93;;;1.83;;
6642;SDS011;3357;48.050;7.800;2024-01-06T15:08:59;2.13;;;1.80;;
6642;SDS011;3357;48.050;7.800;2024-01-06T15:11:24;2.50;;;2.30;;